Time;durP1;ratioP1;P1;durP2;ratioP2;P2;SDS_P1;SDS_P2;PMS_P1;PMS_P2;Temp;Humidity;BMP_temperature;BMP_pressure;BME280_temperature;BME280_humidity;BME280_pressure;Samples;Min_cycle;Max_cycle;Signal;HPM_P1;HPM_P2
2022/03/26 00:00:24;;;;;;;42.62;23.52;;;5.20;99.90;;;;;;7240870;32;21220;-61
2022/03/26 00:04:25;;;;;;;39.38;23.35;;;5.20;99.90;;;;;;7243551;32;20165;-59
2022/03/26 00:08:27;;;;;;;45.53;23.80;;;5.20;99.90;;;;;;7229886;32;20612;-61
2022/03/26 00:12:29;;;;;;;46.45;23.45;;;5.10;99.90;;;;;;7227277;32;20118;-59
2022/03/26 00:16:33;;;;;;;44.35;24.27;;;4.90;99.90;;;;;;7238834;32;20101;-59
2022/03/26 00:20:35;;;;;;;45.83;23.17;;;4.80;99.90;;;;;;7215922;32;20127;-61
2022/03/26 00:24:37;;;;;;;47.75;23.17;;;4.90;99.90;;;;;;7243313;32;20195;-61
2022/03/26 00:28:38;;;;;;;45.90;23.55;;;4.90;99.90;;;;;;7230408;32;20955;-60
2022/03/26 00:32:40;;;;;;;40.88;22.95;;;4.80;99.90;;;;;;7227824;32;20174;-58
2022/03/26 00:36:42;;;;;;;42.67;23.10;;;4.60;99.90;;;;;;7227423;32;20627;-58
2022/03/26 00:40:44;;;;;;;43.72;22.13;;;4.60;99.90;;;;;;7238990;32;20230;-58
2022/03/26 00:44:46;;;;;;;43.80;23.50;;;4.50;99.90;;;;;;7240653;32;20278;-60
2022/03/26 00:48:48;;;;;;;45.42;23.87;;;4.40;99.90;;;;;;7240409;32;20215;-58
2022/03/26 00:52:50;;;;;;;41.70;23.60;;;4.30;99.90;;;;;;7242637;32;20180;-58
2022/03/26 00:56:51;;;;;;;40.40;22.83;;;4.30;99.90;;;;;;7228562;32;20100;-58
2022/03/26 01:00:53;;;;;;;44.33;23.90;;;4.20;99.90;;;;;;7243113;32;20176;-59
2022/03/26 01:04:55;;;;;;;40.75;23.17;;;4.10;99.90;;;;;;7216771;32;20249;-58
2022/03/26 01:08:57;;;;;;;40.80;23.62;;;4.00;99.90;;;;;;7241979;32;20314;-58
2022/03/26 01:12:59;;;;;;;43.53;23.35;;;4.00;99.90;;;;;;7238463;32;20195;-59
2022/03/26 01:17:01;;;;;;;48.10;24.42;;;4.00;99.90;;;;;;7239936;32;20179;-58
2022/03/26 01:21:03;;;;;;;46.30;25.40;;;3.90;99.90;;;;;;7245039;32;20469;-58
2022/03/26 01:25:06;;;;;;;48.45;23.85;;;3.90;99.90;;;;;;7220353;32;20177;-60
2022/03/26 01:29:09;;;;;;;42.50;23.40;;;3.80;99.90;;;;;;7248856;32;20111;-60
2022/03/26 01:33:10;;;;;;;42.42;23.23;;;3.80;99.90;;;;;;7245995;32;20134;-59
2022/03/26 01:37:12;;;;;;;42.13;23.10;;;3.70;99.90;;;;;;7248094;32;20319;-59
2022/03/26 01:41:14;;;;;;;47.60;22.65;;;3.70;99.90;;;;;;7231734;32;20290;-59
2022/03/26 01:45:16;;;;;;;45.75;23.50;;;3.70;99.90;;;;;;7218227;32;20096;-58
2022/03/26 01:49:17;;;;;;;47.85;24.25;;;3.70;99.90;;;;;;7245718;32;20489;-59
2022/03/26 01:53:19;;;;;;;48.50;23.17;;;3.60;99.90;;;;;;7244615;32;20109;-59
2022/03/26 01:57:22;;;;;;;47.15;24.63;;;3.60;99.90;;;;;;7243597;32;20516;-59
2022/03/26 02:01:24;;;;;;;43.85;23.90;;;3.50;99.90;;;;;;7232304;32;20211;-59
2022/03/26 02:05:26;;;;;;;45.80;23.92;;;3.40;99.90;;;;;;7243420;32;20184;-59
2022/03/26 02:09:33;;;;;;;43.60;23.45;;;3.30;99.90;;;;;;7228382;32;20915;-59
2022/03/26 02:13:54;;;;;;;45.78;24.08;;;3.30;99.90;;;;;;7242324;32;20234;-60
2022/03/26 02:17:56;;;;;;;49.58;25.45;;;3.40;99.90;;;;;;7247174;32;20104;-58
2022/03/26 02:21:58;;;;;;;43.80;24.42;;;3.30;99.90;;;;;;7245314;32;20177;-59
2022/03/26 02:26:00;;;;;;;62.33;27.35;;;3.10;99.90;;;;;;7241208;32;20126;-59
2022/03/26 02:30:03;;;;;;;50.67;26.23;;;3.10;99.90;;;;;;7224080;32;20122;-58
2022/03/26 02:34:06;;;;;;;49.00;25.98;;;3.10;99.90;;;;;;7240943;32;20294;-59
2022/03/26 02:38:09;;;;;;;46.80;24.48;;;3.20;99.90;;;;;;7246132;32;20116;-59
2022/03/26 02:42:12;;;;;;;53.13;25.02;;;3.10;99.90;;;;;;7244499;32;20291;-61
2022/03/26 02:46:13;;;;;;;46.95;24.08;;;3.10;99.90;;;;;;7237294;32;20662;-59
2022/03/26 02:50:16;;;;;;;49.40;25.42;;;3.10;99.90;;;;;;7239865;32;20604;-59
2022/03/26 02:54:20;;;;;;;49.50;24.48;;;3.00;99.90;;;;;;7232832;32;20104;-59
2022/03/26 02:58:22;;;;;;;48.33;24.12;;;3.10;99.90;;;;;;7241730;32;20121;-59
2022/03/26 03:02:24;;;;;;;45.33;24.00;;;2.90;99.90;;;;;;7233069;32;20449;-59
2022/03/26 03:06:26;;;;;;;46.25;23.92;;;2.90;99.90;;;;;;7228697;32;20315;-60
2022/03/26 03:10:29;;;;;;;46.47;24.20;;;2.90;99.90;;;;;;7230587;32;20162;-59
2022/03/26 03:14:31;;;;;;;50.33;23.92;;;2.90;99.90;;;;;;7242139;32;20472;-59
2022/03/26 03:18:32;;;;;;;45.83;24.85;;;2.80;99.90;;;;;;7240246;32;20250;-58
2022/03/26 03:22:37;;;;;;;47.55;24.77;;;2.80;99.90;;;;;;7224641;32;20178;-59
2022/03/26 03:26:38;;;;;;;47.00;23.98;;;2.80;99.90;;;;;;7216516;32;20130;-59
2022/03/26 03:30:41;;;;;;;52.55;26.48;;;2.80;99.90;;;;;;7242217;32;20592;-62
2022/03/26 03:34:43;;;;;;;55.85;25.60;;;2.80;99.90;;;;;;7241810;32;20804;-58
2022/03/26 03:38:45;;;;;;;45.15;24.27;;;2.80;99.90;;;;;;7240676;32;20955;-59
2022/03/26 03:42:47;;;;;;;44.55;24.30;;;2.70;99.90;;;;;;7228105;32;20184;-59
2022/03/26 03:46:49;;;;;;;45.55;24.55;;;2.70;99.90;;;;;;7223551;32;20127;-60
2022/03/26 03:50:51;;;;;;;51.80;25.65;;;2.70;99.90;;;;;;7222288;32;20174;-58
2022/03/26 03:54:52;;;;;;;49.28;25.10;;;2.60;99.90;;;;;;7232288;32;20104;-59
2022/03/26 03:58:54;;;;;;;47.30;24.65;;;2.50;99.90;;;;;;7232408;32;20722;-58
2022/03/26 04:02:56;;;;;;;46.63;26.50;;;2.50;99.90;;;;;;7224570;32;20104;-59
2022/03/26 04:06:58;;;;;;;46.67;26.10;;;2.50;99.90;;;;;;7209780;32;20105;-58
2022/03/26 04:10:59;;;;;;;53.53;25.17;;;2.60;99.90;;;;;;7226726;32;20215;-58
2022/03/26 04:15:02;;;;;;;48.87;25.77;;;2.50;99.90;;;;;;7235247;32;20115;-59
2022/03/26 04:19:04;;;;;;;49.15;25.45;;;2.50;99.90;;;;;;7228160;32;20212;-58
2022/03/26 04:23:06;;;;;;;56.08;26.77;;;2.50;99.90;;;;;;7241173;32;20781;-58
2022/03/26 04:27:07;;;;;;;52.60;26.80;;;2.50;99.90;;;;;;7240046;32;20225;-58
2022/03/26 04:31:09;;;;;;;48.38;26.05;;;2.40;99.90;;;;;;7224946;32;20141;-60
2022/03/26 04:35:11;;;;;;;51.00;26.27;;;2.40;99.90;;;;;;7197082;32;20105;-59
2022/03/26 04:39:13;;;;;;;52.92;27.40;;;2.40;99.90;;;;;;7223627;32;20101;-58
2022/03/26 04:43:16;;;;;;;53.40;27.42;;;2.40;99.90;;;;;;7237879;32;20245;-60
2022/03/26 04:47:18;;;;;;;55.80;28.02;;;2.50;99.90;;;;;;7237870;32;20128;-58
2022/03/26 04:51:20;;;;;;;55.78;28.77;;;2.50;99.90;;;;;;7225097;32;20235;-58
2022/03/26 04:55:22;;;;;;;57.55;29.25;;;2.50;99.90;;;;;;7214247;32;20202;-59
2022/03/26 04:59:23;;;;;;;51.15;28.08;;;2.50;99.90;;;;;;7241110;32;20674;-58
2022/03/26 05:03:25;;;;;;;53.38;28.05;;;2.50;99.90;;;;;;7236199;32;20235;-58
2022/03/26 05:07:45;;;;;;;57.22;30.02;;;2.40;99.90;;;;;;7201681;32;20232;-58
2022/03/26 05:11:47;;;;;;;57.10;29.15;;;2.40;99.90;;;;;;7218156;32;20254;-59
2022/03/26 05:15:49;;;;;;;56.45;28.85;;;2.50;99.90;;;;;;7235448;32;20100;-58
2022/03/26 05:19:50;;;;;;;59.38;30.35;;;2.50;99.90;;;;;;7236310;32;20136;-59
2022/03/26 05:23:52;;;;;;;56.25;29.30;;;2.40;99.90;;;;;;7238751;32;20162;-59
2022/03/26 05:27:54;;;;;;;51.60;26.92;;;2.40;99.90;;;;;;7224270;32;20717;-58
2022/03/26 05:31:56;;;;;;;61.20;31.35;;;2.50;99.90;;;;;;7223795;32;20262;-58
2022/03/26 05:35:58;;;;;;;53.28;30.02;;;2.40;99.90;;;;;;7220485;32;20277;-59
2022/03/26 05:40:00;;;;;;;51.03;28.80;;;2.50;99.90;;;;;;7234848;32;20809;-60
2022/03/26 05:44:02;;;;;;;58.87;30.92;;;2.40;99.90;;;;;;7211133;32;20127;-61
2022/03/26 05:48:06;;;;;;;56.22;31.05;;;2.50;99.90;;;;;;7234481;32;20218;-58
2022/03/26 05:52:08;;;;;;;57.60;32.38;;;2.60;99.90;;;;;;7243087;32;20104;-58
2022/03/26 05:56:10;;;;;;;56.60;31.77;;;2.70;99.90;;;;;;7210072;32;20751;-58
2022/03/26 06:00:12;;;;;;;59.60;30.15;;;2.80;99.90;;;;;;7237817;32;20794;-59
2022/03/26 06:04:15;;;;;;;63.87;32.17;;;2.80;99.90;;;;;;7233807;32;20101;-60
2022/03/26 06:08:16;;;;;;;59.33;31.40;;;2.90;99.90;;;;;;7237654;32;20123;-60
2022/03/26 06:12:18;;;;;;;59.30;30.85;;;2.90;99.90;;;;;;7242905;32;20108;-60
2022/03/26 06:16:20;;;;;;;60.50;31.35;;;3.00;99.90;;;;;;7242412;32;20123;-62
2022/03/26 06:20:21;;;;;;;62.20;30.85;;;3.10;99.90;;;;;;7245103;32;20680;-59
2022/03/26 06:24:23;;;;;;;52.42;29.00;;;3.30;99.90;;;;;;7242697;32;20309;-60
2022/03/26 06:28:25;;;;;;;59.05;30.45;;;3.40;99.90;;;;;;7241067;32;20486;-61
2022/03/26 06:32:27;;;;;;;60.05;30.85;;;3.50;99.90;;;;;;7236771;32;20430;-60
2022/03/26 06:36:28;;;;;;;66.95;33.10;;;3.70;99.90;;;;;;7238234;32;20259;-61
2022/03/26 06:40:30;;;;;;;58.42;30.33;;;3.80;99.90;;;;;;7241039;32;20179;-61
2022/03/26 06:44:32;;;;;;;57.22;30.67;;;4.00;99.90;;;;;;7241047;32;21070;-59
2022/03/26 06:48:35;;;;;;;51.70;30.08;;;4.10;99.90;;;;;;7240978;32;20100;-61
2022/03/26 06:52:37;;;;;;;58.97;31.70;;;4.30;99.90;;;;;;7242905;32;20112;-60
2022/03/26 06:56:41;;;;;;;57.45;31.05;;;4.50;99.90;;;;;;7242189;32;20096;-60
2022/03/26 07:00:42;;;;;;;54.67;30.77;;;4.70;99.90;;;;;;7243748;32;20211;-60
2022/03/26 07:04:44;;;;;;;59.72;31.35;;;5.00;99.90;;;;;;7248262;32;20104;-59
2022/03/26 07:08:46;;;;;;;60.22;32.35;;;5.20;99.90;;;;;;7238876;32;20315;-59
2022/03/26 07:12:48;;;;;;;71.37;34.75;;;5.50;99.90;;;;;;7238218;32;20939;-60
2022/03/26 07:16:50;;;;;;;58.90;33.85;;;5.80;99.90;;;;;;7229008;32;20329;-61
2022/03/26 07:20:54;;;;;;;62.92;34.45;;;6.30;99.90;;;;;;7237740;32;20163;-60
2022/03/26 07:24:56;;;;;;;62.88;34.90;;;6.60;99.90;;;;;;7233052;32;20262;-61
2022/03/26 07:28:57;;;;;;;65.53;34.20;;;7.00;99.90;;;;;;7239168;32;20223;-62
2022/03/26 07:33:00;;;;;;;64.40;33.88;;;7.40;99.90;;;;;;7244637;32;20104;-60
2022/03/26 07:37:02;;;;;;;58.80;32.88;;;7.90;99.90;;;;;;7242654;32;20251;-62
2022/03/26 07:41:04;;;;;;;59.75;33.45;;;8.40;99.90;;;;;;7243095;32;20208;-59
2022/03/26 07:45:07;;;;;;;58.55;31.50;;;8.60;99.90;;;;;;7242946;32;20330;-60
2022/03/26 07:49:09;;;;;;;53.42;31.20;;;9.00;99.90;;;;;;7242590;32;20619;-59
2022/03/26 07:53:11;;;;;;;52.53;30.60;;;9.20;99.90;;;;;;7243598;32;20133;-59
2022/03/26 07:57:13;;;;;;;56.78;30.17;;;9.50;99.90;;;;;;7241398;32;20104;-58
2022/03/26 08:01:15;;;;;;;50.25;29.12;;;9.70;99.90;;;;;;7235970;32;20230;-60
2022/03/26 08:05:17;;;;;;;53.25;29.02;;;9.90;99.90;;;;;;7238007;32;20320;-61
2022/03/26 08:09:19;;;;;;;47.75;29.40;;;10.30;99.90;;;;;;7242505;32;20123;-60
2022/03/26 08:13:20;;;;;;;49.47;29.40;;;10.70;99.90;;;;;;7242126;32;20123;-60
2022/03/26 08:17:28;;;;;;;51.22;28.95;;;11.50;99.90;;;;;;7239905;32;20218;-61
2022/03/26 08:21:32;;;;;;;47.17;29.65;;;12.20;99.90;;;;;;7241941;32;20199;-56
2022/03/26 08:29:54;;;;;;;48.15;28.17;;;13.70;99.90;;;;;;7237815;32;20108;-62
2022/03/26 08:33:56;;;;;;;46.65;27.95;;;14.50;99.90;;;;;;7239261;32;20254;-63
2022/03/26 08:37:57;;;;;;;49.10;28.25;;;15.40;99.90;;;;;;7241129;32;20123;-62
2022/03/26 08:41:59;;;;;;;45.88;26.75;;;15.90;99.90;;;;;;7244224;32;20127;-61
2022/03/26 08:46:01;;;;;;;39.88;26.98;;;17.10;99.90;;;;;;7244710;32;20242;-63
2022/03/26 08:50:03;;;;;;;37.22;23.50;;;17.80;93.00;;;;;;7244578;32;20204;-63
2022/03/26 08:54:05;;;;;;;41.50;24.80;;;16.20;93.40;;;;;;7244818;32;20135;-64
2022/03/26 08:58:07;;;;;;;35.50;22.87;;;16.10;95.50;;;;;;7245507;32;20137;-61
2022/03/26 09:02:09;;;;;;;40.55;24.67;;;16.40;96.40;;;;;;7244176;32;20104;-62
2022/03/26 09:06:11;;;;;;;42.00;24.37;;;17.70;90.30;;;;;;7239984;32;20587;-62
2022/03/26 09:10:13;;;;;;;44.30;25.55;;;17.80;91.60;;;;;;7243722;32;20136;-62
2022/03/26 09:14:15;;;;;;;36.88;25.10;;;17.60;83.20;;;;;;7240705;32;20212;-63
2022/03/26 09:18:17;;;;;;;35.05;22.08;;;17.90;85.70;;;;;;7243867;32;20524;-61
2022/03/26 09:22:18;;;;;;;38.08;23.73;;;17.80;83.00;;;;;;7242405;32;20123;-63
2022/03/26 09:26:20;;;;;;;39.72;22.02;;;17.90;81.40;;;;;;7243484;32;20546;-64
2022/03/26 09:30:22;;;;;;;42.80;25.08;;;17.60;78.40;;;;;;7242636;32;20123;-62
2022/03/26 09:34:24;;;;;;;41.63;23.40;;;17.20;79.40;;;;;;7244763;32;20186;-62
2022/03/26 09:38:25;;;;;;;40.92;24.27;;;17.30;77.80;;;;;;7245420;32;20580;-64
2022/03/26 09:42:27;;;;;;;44.25;22.90;;;17.40;79.50;;;;;;7247527;32;20109;-63
2022/03/26 09:46:29;;;;;;;38.83;25.95;;;18.40;78.40;;;;;;7250341;32;20211;-62
2022/03/26 09:50:31;;;;;;;36.80;23.27;;;18.20;74.60;;;;;;7249778;32;20366;-62
2022/03/26 09:54:34;;;;;;;47.28;26.12;;;19.10;75.70;;;;;;7249512;32;20546;-61
2022/03/26 09:58:36;;;;;;;31.40;20.95;;;19.20;69.20;;;;;;7248501;32;20480;-64
2022/03/26 10:02:37;;;;;;;34.13;23.42;;;19.80;69.90;;;;;;7249818;32;20151;-63
2022/03/26 10:06:54;;;;;;;37.97;22.83;;;20.40;63.00;;;;;;7249704;32;20243;-63
2022/03/26 10:10:55;;;;;;;32.92;22.87;;;19.80;64.00;;;;;;7247761;32;20638;-61
2022/03/26 10:14:59;;;;;;;44.22;27.70;;;20.40;63.70;;;;;;7247214;32;20105;-62
2022/03/26 10:19:03;;;;;;;44.53;29.87;;;21.00;61.50;;;;;;7251671;32;20535;-61
2022/03/26 10:23:05;;;;;;;46.17;32.28;;;20.90;61.60;;;;;;7249169;32;20100;-61
2022/03/26 10:27:12;;;;;;;50.17;35.30;;;20.80;62.60;;;;;;7249602;32;20191;-63
2022/03/26 10:35:59;;;;;;;38.00;25.10;;;21.30;59.20;;;;;;7248610;32;20101;-62
2022/03/26 10:40:20;;;;;;;33.47;22.20;;;21.90;57.10;;;;;;7248350;32;20131;-62
2022/03/26 10:44:29;;;;;;;29.73;17.90;;;21.60;55.30;;;;;;7246656;32;20764;-61
2022/03/26 10:48:36;;;;;;;23.42;14.95;;;21.20;57.80;;;;;;7225960;32;20136;-61
2022/03/26 10:52:38;;;;;;;22.73;15.55;;;20.80;57.70;;;;;;7237174;32;20283;-60
2022/03/26 10:56:40;;;;;;;24.75;14.57;;;20.40;57.80;;;;;;7241548;32;20258;-61
2022/03/26 11:00:43;;;;;;;19.20;12.93;;;19.70;59.50;;;;;;7238417;32;20132;-59
2022/03/26 11:04:44;;;;;;;19.85;13.48;;;19.10;61.10;;;;;;7241030;32;20097;-60
2022/03/26 11:08:48;;;;;;;19.08;12.52;;;19.20;62.70;;;;;;7247329;32;20635;-62
2022/03/26 11:12:50;;;;;;;20.52;12.77;;;18.90;60.20;;;;;;7249704;32;20733;-60
2022/03/26 11:17:35;;;;;;;21.00;13.15;;;18.20;62.30;;;;;;7241943;32;20636;-61
2022/03/26 11:22:07;;;;;;;17.92;11.05;;;18.30;61.60;;;;;;7243688;32;20203;-62
2022/03/26 11:26:42;;;;;;;19.80;11.52;;;18.50;63.80;;;;;;7245327;32;20572;-61
2022/03/26 11:30:53;;;;;;;15.63;9.77;;;17.90;66.30;;;;;;7242444;32;20097;-62
2022/03/26 11:35:19;;;;;;;18.42;11.90;;;18.10;68.70;;;;;;7237648;32;20101;-59
2022/03/26 11:39:21;;;;;;;15.73;8.98;;;18.30;70.00;;;;;;7229432;32;20794;-62
2022/03/26 11:43:42;;;;;;;17.85;10.88;;;18.20;70.80;;;;;;7243545;32;20139;-60
2022/03/26 11:52:16;;;;;;;14.90;7.65;;;18.40;70.00;;;;;;7237812;32;20433;-62
2022/03/26 11:56:26;;;;;;;19.08;8.55;;;18.60;70.40;;;;;;7236868;32;20575;-60
2022/03/26 12:00:28;;;;;;;13.02;7.30;;;18.70;70.10;;;;;;7236652;32;20097;-63
2022/03/26 12:04:47;;;;;;;23.98;9.27;;;19.40;68.90;;;;;;7238392;32;20587;-60
2022/03/26 12:08:55;;;;;;;14.60;6.97;;;19.80;65.30;;;;;;7244145;32;20108;-61
2022/03/26 12:12:57;;;;;;;10.82;7.45;;;19.70;63.70;;;;;;7243899;32;20199;-61
2022/03/26 12:16:58;;;;;;;10.55;4.95;;;19.70;63.30;;;;;;7239079;32;20104;-60
2022/03/26 12:21:08;;;;;;;10.48;5.60;;;19.00;62.90;;;;;;7231428;32;20113;-59
2022/03/26 12:25:11;;;;;;;14.57;7.97;;;19.10;63.90;;;;;;7239078;32;20253;-58
2022/03/26 12:29:14;;;;;;;9.75;5.47;;;18.40;66.90;;;;;;7241461;32;20127;-57
2022/03/26 12:33:17;;;;;;;11.38;6.12;;;18.20;67.60;;;;;;7239814;32;20640;-57
2022/03/26 12:37:19;;;;;;;10.98;5.45;;;18.10;67.00;;;;;;7241330;32;20223;-57
2022/03/26 12:41:21;;;;;;;8.98;5.70;;;17.90;67.50;;;;;;7241034;32;20646;-59
2022/03/26 12:45:22;;;;;;;18.50;5.22;;;17.90;66.70;;;;;;7241512;32;20100;-58
2022/03/26 12:49:24;;;;;;;9.15;6.18;;;18.10;68.10;;;;;;7242226;32;20148;-59
2022/03/26 12:53:37;;;;;;;12.23;5.60;;;18.20;67.60;;;;;;7240096;32;20595;-58
2022/03/26 13:02:09;;;;;;;9.93;5.75;;;18.10;65.60;;;;;;7242239;32;20122;-58
2022/03/26 13:06:16;;;;;;;9.70;6.82;;;17.90;67.70;;;;;;7236956;32;20180;-57
2022/03/26 13:10:34;;;;;;;7.45;5.47;;;17.90;67.70;;;;;;7238576;32;20136;-58
2022/03/26 13:14:46;;;;;;;8.18;5.43;;;18.10;67.30;;;;;;7237860;32;20105;-59
2022/03/26 13:18:51;;;;;;;10.25;5.85;;;18.30;67.10;;;;;;7242473;32;20310;-58
2022/03/26 13:22:57;;;;;;;9.73;5.20;;;18.30;65.70;;;;;;7244662;32;20113;-56
2022/03/26 13:26:59;;;;;;;10.35;5.22;;;18.30;68.90;;;;;;7246284;32;20223;-62
2022/03/26 13:31:18;;;;;;;9.15;5.07;;;18.40;65.90;;;;;;7243630;32;20196;-62
2022/03/26 13:35:20;;;;;;;11.60;5.72;;;18.60;68.40;;;;;;7243465;32;20192;-61
2022/03/26 13:39:25;;;;;;;10.75;5.80;;;19.10;66.50;;;;;;7247037;32;20155;-61
2022/03/26 13:43:26;;;;;;;11.70;5.43;;;19.50;68.80;;;;;;7243425;32;20113;-60
2022/03/26 13:47:33;;;;;;;7.68;5.00;;;19.30;61.50;;;;;;7232711;32;20108;-60
2022/03/26 13:51:39;;;;;;;9.38;5.10;;;18.90;61.00;;;;;;7249908;32;20101;-62
2022/03/26 13:55:47;;;;;;;9.75;6.18;;;19.10;61.50;;;;;;7248086;32;20749;-59
2022/03/26 13:59:49;;;;;;;8.77;6.07;;;18.80;60.70;;;;;;7245551;32;20886;-62
2022/03/26 14:03:52;;;;;;;11.45;6.32;;;18.50;62.70;;;;;;7249949;32;20215;-61
2022/03/26 14:08:01;;;;;;;12.15;6.90;;;18.60;64.20;;;;;;7246305;32;20187;-60
2022/03/26 14:12:03;;;;;;;15.23;7.78;;;18.60;65.20;;;;;;7246029;32;20147;-61
2022/03/26 14:16:05;;;;;;;9.57;7.90;;;18.60;64.70;;;;;;7248188;32;20188;-62
2022/03/26 14:20:07;;;;;;;11.23;7.87;;;18.80;66.20;;;;;;7247385;32;20187;-62
2022/03/26 14:24:09;;;;;;;14.98;7.80;;;19.40;68.10;;;;;;7232310;32;20151;-62
2022/03/26 14:28:13;;;;;;;11.85;7.80;;;19.70;62.70;;;;;;7253536;32;20093;-63
2022/03/26 14:32:15;;;;;;;11.63;8.13;;;19.70;63.70;;;;;;7241650;32;20677;-58
2022/03/26 14:36:17;;;;;;;14.00;8.82;;;19.90;63.20;;;;;;7247552;32;20263;-61
2022/03/26 14:40:19;;;;;;;11.60;7.43;;;20.10;61.60;;;;;;7247445;32;20139;-60
2022/03/26 14:44:20;;;;;;;13.55;8.30;;;20.10;60.90;;;;;;7245548;32;20334;-62
2022/03/26 14:48:22;;;;;;;11.32;7.45;;;20.10;61.90;;;;;;7244740;32;20104;-62
2022/03/26 14:52:24;;;;;;;12.13;6.80;;;19.90;61.80;;;;;;7242859;32;20285;-61
2022/03/26 14:56:26;;;;;;;8.88;6.10;;;18.70;63.70;;;;;;7241050;32;20158;-62
2022/03/26 15:00:27;;;;;;;9.70;5.50;;;18.50;65.80;;;;;;7251523;32;20737;-61
2022/03/26 15:04:29;;;;;;;10.80;7.37;;;18.30;69.90;;;;;;7242893;32;20104;-61
2022/03/26 15:08:31;;;;;;;10.68;6.75;;;18.00;69.00;;;;;;7239630;32;20168;-63
2022/03/26 15:12:33;;;;;;;9.93;6.85;;;17.70;69.00;;;;;;7243478;32;22323;-62
2022/03/26 15:16:34;;;;;;;11.88;7.30;;;17.80;70.50;;;;;;7244204;32;20128;-61
2022/03/26 15:20:36;;;;;;;9.73;7.30;;;17.80;70.30;;;;;;7250625;32;20546;-62
2022/03/26 15:24:38;;;;;;;10.43;6.70;;;17.70;72.70;;;;;;7239103;32;20306;-61
2022/03/26 15:28:40;;;;;;;8.15;6.22;;;17.70;69.10;;;;;;7244126;32;20262;-63
2022/03/26 15:32:41;;;;;;;11.93;6.32;;;17.30;70.10;;;;;;7245319;32;20179;-61
2022/03/26 15:36:43;;;;;;;9.93;7.07;;;17.50;70.30;;;;;;7245779;32;20112;-62
2022/03/26 15:40:45;;;;;;;9.38;6.70;;;17.50;71.10;;;;;;7245520;32;20226;-63
2022/03/26 15:44:47;;;;;;;11.45;6.97;;;17.40;69.80;;;;;;7241312;32;20516;-64
2022/03/26 15:48:48;;;;;;;11.52;7.07;;;17.30;68.50;;;;;;7239168;32;20518;-62
2022/03/26 15:52:50;;;;;;;12.65;9.77;;;17.40;68.50;;;;;;7242290;32;20216;-62
2022/03/26 15:56:52;;;;;;;11.23;7.00;;;17.20;69.20;;;;;;7244824;32;20215;-62
2022/03/26 16:00:53;;;;;;;11.57;6.93;;;17.10;68.80;;;;;;7242367;32;20749;-63
2022/03/26 16:04:57;;;;;;;10.82;6.70;;;17.10;67.70;;;;;;7239069;32;20105;-63
2022/03/26 16:08:59;;;;;;;12.55;7.80;;;17.00;68.10;;;;;;7234145;32;20131;-62
2022/03/26 16:13:02;;;;;;;11.27;7.68;;;17.00;69.40;;;;;;7250712;32;20139;-63
2022/03/26 16:17:03;;;;;;;12.07;7.57;;;16.90;69.00;;;;;;7242865;32;20216;-61
2022/03/26 16:21:05;;;;;;;16.87;8.70;;;16.90;69.70;;;;;;7244338;32;20100;-63
2022/03/26 16:25:07;;;;;;;11.65;8.00;;;16.90;69.30;;;;;;7238547;32;20374;-63
2022/03/26 16:29:09;;;;;;;15.60;9.82;;;16.90;68.70;;;;;;7247721;32;20123;-63
2022/03/26 16:33:11;;;;;;;14.35;10.57;;;16.60;69.20;;;;;;7246262;32;20116;-64
2022/03/26 16:37:13;;;;;;;11.73;8.90;;;16.60;69.70;;;;;;7243277;32;20239;-63
2022/03/26 16:41:14;;;;;;;18.02;9.02;;;16.60;68.00;;;;;;7242654;32;20155;-62
2022/03/26 16:45:16;;;;;;;24.80;18.73;;;16.40;70.10;;;;;;7243359;32;20132;-62
2022/03/26 16:49:18;;;;;;;39.15;33.90;;;16.30;70.40;;;;;;7248643;32;20310;-63
2022/03/26 16:53:20;;;;;;;17.58;10.98;;;16.20;71.60;;;;;;7232573;32;20158;-61
2022/03/26 16:57:22;;;;;;;16.23;10.95;;;16.20;70.50;;;;;;7245986;32;20214;-63
2022/03/26 17:01:24;;;;;;;15.73;11.23;;;16.20;71.00;;;;;;7245673;32;20275;-60
2022/03/26 17:05:26;;;;;;;14.30;8.55;;;16.20;69.00;;;;;;7246615;32;20127;-62
2022/03/26 17:09:28;;;;;;;14.50;8.98;;;16.10;70.30;;;;;;7246402;32;20309;-61
2022/03/26 17:13:29;;;;;;;15.60;8.52;;;15.90;71.70;;;;;;7236695;32;20123;-63
2022/03/26 17:17:32;;;;;;;12.35;8.15;;;15.80;71.90;;;;;;7246170;32;20128;-61
2022/03/26 17:21:36;;;;;;;17.37;10.10;;;15.70;72.30;;;;;;7240596;32;20123;-63
2022/03/26 17:25:37;;;;;;;19.12;11.35;;;15.50;74.30;;;;;;7247120;32;20627;-63
2022/03/26 17:29:39;;;;;;;14.38;9.65;;;15.40;74.10;;;;;;7245456;32;20096;-61
2022/03/26 17:33:41;;;;;;;14.95;9.70;;;15.30;75.90;;;;;;7238047;32;20108;-62
2022/03/26 17:37:43;;;;;;;18.83;10.45;;;15.10;77.50;;;;;;7241901;32;20191;-63
2022/03/26 17:41:45;;;;;;;15.82;10.07;;;15.00;78.60;;;;;;7241683;32;20143;-62
2022/03/26 17:45:46;;;;;;;16.15;10.27;;;15.00;79.40;;;;;;7242574;32;20112;-64
2022/03/26 17:49:48;;;;;;;16.90;10.32;;;14.80;81.00;;;;;;7246042;32;20211;-63
2022/03/26 17:53:50;;;;;;;15.77;10.43;;;14.70;84.10;;;;;;7242037;32;20449;-64
2022/03/26 17:57:52;;;;;;;15.90;11.15;;;14.50;85.20;;;;;;7237589;32;20220;-62
2022/03/26 18:01:53;;;;;;;16.55;11.38;;;14.40;86.70;;;;;;7231369;32;44329;-62
2022/03/26 18:05:55;;;;;;;15.60;10.18;;;14.20;88.00;;;;;;7232178;32;44876;-63
2022/03/26 18:09:57;;;;;;;14.38;9.65;;;14.00;90.00;;;;;;7243108;32;20830;-62
2022/03/26 18:13:59;;;;;;;19.27;12.93;;;13.90;90.90;;;;;;7237293;32;20444;-59
2022/03/26 18:18:02;;;;;;;18.00;12.50;;;13.70;92.70;;;;;;7243424;32;20611;-62
2022/03/26 18:22:03;;;;;;;24.92;16.58;;;13.40;95.40;;;;;;7239196;32;20505;-61
2022/03/26 18:26:09;;;;;;;13.45;9.13;;;13.10;99.20;;;;;;7237277;32;20196;-61
2022/03/26 18:30:11;;;;;;;18.37;9.10;;;12.80;99.90;;;;;;7241016;32;20642;-60
2022/03/26 18:34:13;;;;;;;25.37;15.95;;;12.50;99.90;;;;;;7240359;32;20187;-60
2022/03/26 18:38:15;;;;;;;19.42;12.80;;;12.30;99.90;;;;;;7238106;32;20162;-60
2022/03/26 18:42:16;;;;;;;19.55;11.93;;;11.90;99.90;;;;;;7249575;32;20508;-59
2022/03/26 18:46:19;;;;;;;17.52;11.45;;;11.70;99.90;;;;;;7244312;32;20207;-58
2022/03/26 18:50:20;;;;;;;16.58;9.43;;;11.50;99.90;;;;;;7250628;32;20120;-60
2022/03/26 18:54:22;;;;;;;15.02;9.85;;;11.20;99.90;;;;;;7240408;32;20170;-60
2022/03/26 18:58:24;;;;;;;16.83;9.13;;;11.00;99.90;;;;;;7230376;32;20274;-61
2022/03/26 19:02:26;;;;;;;19.95;10.20;;;10.80;99.90;;;;;;7243235;32;20116;-61
2022/03/26 19:06:27;;;;;;;17.48;10.15;;;10.60;99.90;;;;;;7246702;32;20267;-61
2022/03/26 19:10:38;;;;;;;16.65;10.02;;;10.50;99.90;;;;;;7234952;32;20768;-61
2022/03/26 19:14:39;;;;;;;22.60;11.60;;;10.30;99.90;;;;;;7234881;32;20210;-61
2022/03/26 19:18:42;;;;;;;19.10;10.30;;;10.10;99.90;;;;;;7233094;32;20214;-61
2022/03/26 19:22:44;;;;;;;16.12;11.35;;;9.90;99.90;;;;;;7239084;32;20191;-62
2022/03/26 19:26:46;;;;;;;20.92;11.88;;;9.80;99.90;;;;;;7237288;32;20195;-62
2022/03/26 19:30:47;;;;;;;22.00;10.80;;;9.60;99.90;;;;;;7233762;32;20191;-62
2022/03/26 19:34:49;;;;;;;20.15;10.55;;;9.50;99.90;;;;;;7236541;32;20206;-61
2022/03/26 19:38:51;;;;;;;18.92;11.20;;;9.40;99.90;;;;;;7243019;32;21048;-61
2022/03/26 19:42:53;;;;;;;17.20;11.00;;;9.30;99.90;;;;;;7239918;32;20646;-63
2022/03/26 19:46:55;;;;;;;18.92;11.32;;;9.20;99.90;;;;;;7236307;32;20215;-61
2022/03/26 19:50:57;;;;;;;16.20;11.02;;;9.10;99.90;;;;;;7238006;32;20191;-62
2022/03/26 19:54:59;;;;;;;17.60;10.50;;;9.00;99.90;;;;;;7239600;32;20191;-63
2022/03/26 19:59:02;;;;;;;19.52;11.07;;;8.90;99.90;;;;;;7243685;32;20265;-62
2022/03/26 20:03:04;;;;;;;18.45;11.12;;;8.80;99.90;;;;;;7235832;32;20211;-60
2022/03/26 20:07:06;;;;;;;18.75;11.15;;;8.70;99.90;;;;;;7230096;32;20321;-60
2022/03/26 20:11:08;;;;;;;21.33;10.88;;;8.60;99.90;;;;;;7235519;32;20225;-61
2022/03/26 20:15:09;;;;;;;28.40;11.55;;;8.60;99.90;;;;;;7232084;32;20199;-61
2022/03/26 20:19:12;;;;;;;19.75;10.52;;;8.50;99.90;;;;;;7235603;32;20199;-62
2022/03/26 20:23:14;;;;;;;18.30;10.98;;;8.40;99.90;;;;;;7234624;32;20221;-63
2022/03/26 20:27:15;;;;;;;23.08;11.35;;;8.30;99.90;;;;;;7232098;32;20509;-62
2022/03/26 20:31:18;;;;;;;19.70;11.30;;;8.20;99.90;;;;;;7230679;32;20313;-61
2022/03/26 20:35:20;;;;;;;21.62;11.15;;;8.10;99.90;;;;;;7228142;32;20294;-61
2022/03/26 20:39:21;;;;;;;24.48;12.23;;;8.00;99.90;;;;;;7233346;32;20188;-61
2022/03/26 20:43:23;;;;;;;21.00;11.20;;;8.00;99.90;;;;;;7232954;32;20252;-61
2022/03/26 20:47:26;;;;;;;21.30;11.93;;;7.90;99.90;;;;;;7231547;32;20207;-60
2022/03/26 20:51:27;;;;;;;19.85;11.07;;;7.90;99.90;;;;;;7229684;32;20316;-60
2022/03/26 20:55:30;;;;;;;21.80;11.30;;;7.80;99.90;;;;;;7233240;32;20315;-62
2022/03/26 20:59:31;;;;;;;21.42;12.23;;;7.80;99.90;;;;;;7234941;32;20651;-63
2022/03/26 21:03:33;;;;;;;20.10;11.52;;;7.90;99.90;;;;;;7233101;32;20205;-60